sensor_id;sensor_type;location;lat;lon;timestamp;P1;durP1;ratioP1;P2;durP2;ratioP2
37787;SDS011;23627;53.302;-6.362;2023-11-18T00:01:55;0.20;;;0.10;;
37787;SDS011;23627;53.302;-6.362;2023-11-18T00:04:21;0.10;;;0.00;;
37787;SDS011;23627;53.302;-6.362;2023-11-18T00:06:47;0.20;;;0.10;;
37787;SDS011;23627;53.302;-6.362;2023-11-18T00:09:13;0.45;;;0.10;;
37787;SDS011;23627;53.302;-6.362;2023-11-18T00:11:39;0.52;;;0.10;;
37787;SDS011;23627;53.302;-6.362;2023-11-18T00:14:05;0.00;;;0.00;;
37787;SDS011;23627;53.302;-6.362;2023-11-18T00:16:31;0.15;;;0.10;;
37787;SDS011;23627;53.302;-6.362;2023-11-18T00:18:57;0.20;;;0.10;;
37787;SDS011;23627;53.302;-6.362;2023-11-18T00:21:26;0.10;;;0.00;;
37787;SDS011;23627;53.302;-6.362;2023-11-18T00:23:53;0.20;;;0.10;;
37787;SDS011;23627;53.302;-6.362;2023-11-18T00:26:20;0.85;;;0.00;;
37787;SDS011;23627;53.302;-6.362;2023-11-18T00:28:46;0.20;;;0.03;;
37787;SDS011;23627;53.302;-6.362;2023-11-18T00:31:13;0.40;;;0.10;;
37787;SDS011;23627;53.302;-6.362;2023-11-18T00:33:39;0.20;;;0.10;;
37787;SDS011;23627;53.302;-6.362;2023-11-18T00:36:05;1.17;;;0.10;;
37787;SDS011;23627;53.302;-6.362;2023-11-18T00:38:32;0.15;;;0.00;;
37787;SDS011;23627;53.302;-6.362;2023-11-18T00:40:58;0.17;;;0.10;;
37787;SDS011;23627;53.302;-6.362;2023-11-18T00:43:23;0.38;;;0.10;;
37787;SDS011;23627;53.302;-6.362;2023-11-18T00:45:49;0.17;;;0.10;;
37787;SDS011;23627;53.302;-6.362;2023-11-18T00:48:16;0.20;;;0.10;;
37787;SDS011;23627;53.302;-6.362;2023-11-18T00:50:42;0.65;;;0.10;;
37787;SDS011;23627;53.302;-6.362;2023-11-18T00:53:08;0.40;;;0.10;;
37787;SDS011;23627;53.302;-6.362;2023-11-18T00:55:35;0.20;;;0.10;;
37787;SDS011;23627;53.302;-6.362;2023-11-18T00:58:01;0.20;;;0.10;;
37787;SDS011;23627;53.302;-6.362;2023-11-18T01:00:27;0.40;;;0.10;;
37787;SDS011;23627;53.302;-6.362;2023-11-18T01:02:53;0.17;;;0.00;;
37787;SDS011;23627;53.302;-6.362;2023-11-18T01:05:20;0.50;;;0.13;;
37787;SDS011;23627;53.302;-6.362;2023-11-18T01:07:45;0.30;;;0.10;;
37787;SDS011;23627;53.302;-6.362;2023-11-18T01:10:11;0.63;;;0.10;;
37787;SDS011;23627;53.302;-6.362;2023-11-18T01:12:38;0.50;;;0.20;;
37787;SDS011;23627;53.302;-6.362;2023-11-18T01:15:10;0.47;;;0.20;;
37787;SDS011;23627;53.302;-6.362;2023-11-18T01:17:35;0.70;;;0.20;;
37787;SDS011;23627;53.302;-6.362;2023-11-18T01:20:01;0.30;;;0.10;;
37787;SDS011;23627;53.302;-6.362;2023-11-18T01:22:34;0.77;;;0.10;;
37787;SDS011;23627;53.302;-6.362;2023-11-18T01:25:00;0.47;;;0.17;;
37787;SDS011;23627;53.302;-6.362;2023-11-18T01:27:26;0.60;;;0.20;;
37787;SDS011;23627;53.302;-6.362;2023-11-18T01:29:52;0.50;;;0.10;;
37787;SDS011;23627;53.302;-6.362;2023-11-18T01:32:18;0.20;;;0.00;;
37787;SDS011;23627;53.302;-6.362;2023-11-18T01:34:44;0.60;;;0.10;;
37787;SDS011;23627;53.302;-6.362;2023-11-18T01:37:15;0.35;;;0.00;;
37787;SDS011;23627;53.302;-6.362;2023-11-18T01:39:41;0.10;;;0.00;;
37787;SDS011;23627;53.302;-6.362;2023-11-18T01:42:07;0.15;;;0.00;;
37787;SDS011;23627;53.302;-6.362;2023-11-18T01:44:32;0.30;;;0.10;;
37787;SDS011;23627;53.302;-6.362;2023-11-18T01:47:00;0.17;;;0.00;;
37787;SDS011;23627;53.302;-6.362;2023-11-18T01:49:28;0.10;;;0.00;;
37787;SDS011;23627;53.302;-6.362;2023-11-18T01:51:54;0.32;;;0.10;;
37787;SDS011;23627;53.302;-6.362;2023-11-18T01:54:21;0.17;;;0.00;;
37787;SDS011;23627;53.302;-6.362;2023-11-18T01:56:49;0.30;;;0.10;;
37787;SDS011;23627;53.302;-6.362;2023-11-18T01:59:15;1.40;;;0.10;;
37787;SDS011;23627;53.302;-6.362;2023-11-18T02:01:51;0.38;;;0.10;;
37787;SDS011;23627;53.302;-6.362;2023-11-18T02:04:19;0.15;;;0.00;;
37787;SDS011;23627;53.302;-6.362;2023-11-18T02:06:46;0.10;;;0.00;;
37787;SDS011;23627;53.302;-6.362;2023-11-18T02:09:20;0.88;;;0.00;;
37787;SDS011;23627;53.302;-6.362;2023-11-18T02:14:29;0.10;;;0.00;;
37787;SDS011;23627;53.302;-6.362;2023-11-18T02:16:59;0.20;;;0.10;;
37787;SDS011;23627;53.302;-6.362;2023-11-18T02:19:27;0.08;;;0.00;;
37787;SDS011;23627;53.302;-6.362;2023-11-18T02:21:55;0.10;;;0.10;;
37787;SDS011;23627;53.302;-6.362;2023-11-18T02:24:28;0.38;;;0.10;;
37787;SDS011;23627;53.302;-6.362;2023-11-18T02:26:58;0.10;;;0.05;;
37787;SDS011;23627;53.302;-6.362;2023-11-18T02:29:29;0.08;;;0.00;;
37787;SDS011;23627;53.302;-6.362;2023-11-18T02:32:23;0.25;;;0.10;;
37787;SDS011;23627;53.302;-6.362;2023-11-18T02:35:17;1.20;;;0.00;;
37787;SDS011;23627;53.302;-6.362;2023-11-18T02:37:49;0.10;;;0.00;;
37787;SDS011;23627;53.302;-6.362;2023-11-18T02:40:22;0.30;;;0.10;;
37787;SDS011;23627;53.302;-6.362;2023-11-18T02:42:55;0.20;;;0.03;;
37787;SDS011;23627;53.302;-6.362;2023-11-18T02:45:24;0.10;;;0.00;;
37787;SDS011;23627;53.302;-6.362;2023-11-18T02:47:50;0.10;;;0.00;;
37787;SDS011;23627;53.302;-6.362;2023-11-18T02:50:16;0.17;;;0.08;;
37787;SDS011;23627;53.302;-6.362;2023-11-18T02:52:44;0.50;;;0.00;;
37787;SDS011;23627;53.302;-6.362;2023-11-18T02:55:10;0.10;;;0.10;;
37787;SDS011;23627;53.302;-6.362;2023-11-18T02:57:36;0.10;;;0.10;;
37787;SDS011;23627;53.302;-6.362;2023-11-18T03:00:03;0.20;;;0.10;;
37787;SDS011;23627;53.302;-6.362;2023-11-18T03:02:30;0.32;;;0.20;;
37787;SDS011;23627;53.302;-6.362;2023-11-18T03:04:59;0.20;;;0.10;;
37787;SDS011;23627;53.302;-6.362;2023-11-18T03:07:25;0.75;;;0.03;;
37787;SDS011;23627;53.302;-6.362;2023-11-18T03:09:54;0.15;;;0.00;;
37787;SDS011;23627;53.302;-6.362;2023-11-18T03:12:21;0.08;;;0.00;;
37787;SDS011;23627;53.302;-6.362;2023-11-18T03:14:47;0.17;;;0.10;;
37787;SDS011;23627;53.302;-6.362;2023-11-18T03:17:13;0.30;;;0.10;;
37787;SDS011;23627;53.302;-6.362;2023-11-18T03:19:39;0.65;;;0.00;;
37787;SDS011;23627;53.302;-6.362;2023-11-18T03:22:06;0.77;;;0.00;;
37787;SDS011;23627;53.302;-6.362;2023-11-18T03:24:32;0.20;;;0.00;;
37787;SDS011;23627;53.302;-6.362;2023-11-18T03:26:58;0.10;;;0.00;;
37787;SDS011;23627;53.302;-6.362;2023-11-18T03:29:24;0.20;;;0.13;;
37787;SDS011;23627;53.302;-6.362;2023-11-18T03:31:49;0.00;;;0.00;;
37787;SDS011;23627;53.302;-6.362;2023-11-18T03:34:16;0.00;;;0.00;;
37787;SDS011;23627;53.302;-6.362;2023-11-18T03:36:46;0.10;;;0.10;;
37787;SDS011;23627;53.302;-6.362;2023-11-18T03:39:12;0.90;;;0.10;;
37787;SDS011;23627;53.302;-6.362;2023-11-18T03:41:39;0.55;;;0.08;;
37787;SDS011;23627;53.302;-6.362;2023-11-18T03:44:13;0.20;;;0.00;;
37787;SDS011;23627;53.302;-6.362;2023-11-18T03:46:39;0.40;;;0.10;;
37787;SDS011;23627;53.302;-6.362;2023-11-18T03:49:06;0.20;;;0.10;;
37787;SDS011;23627;53.302;-6.362;2023-11-18T03:51:32;0.20;;;0.10;;
37787;SDS011;23627;53.302;-6.362;2023-11-18T03:53:57;0.50;;;0.10;;
37787;SDS011;23627;53.302;-6.362;2023-11-18T03:56:23;0.22;;;0.10;;
37787;SDS011;23627;53.302;-6.362;2023-11-18T03:58:49;0.00;;;0.00;;
37787;SDS011;23627;53.302;-6.362;2023-11-18T04:01:24;0.10;;;0.00;;
37787;SDS011;23627;53.302;-6.362;2023-11-18T04:03:53;0.17;;;0.10;;
37787;SDS011;23627;53.302;-6.362;2023-11-18T04:06:22;0.20;;;0.10;;
37787;SDS011;23627;53.302;-6.362;2023-11-18T04:08:49;0.13;;;0.00;;
37787;SDS011;23627;53.302;-6.362;2023-11-18T04:11:15;0.03;;;0.00;;
37787;SDS011;23627;53.302;-6.362;2023-11-18T04:13:41;0.20;;;0.10;;
37787;SDS011;23627;53.302;-6.362;2023-11-18T04:16:12;0.47;;;0.10;;
37787;SDS011;23627;53.302;-6.362;2023-11-18T04:18:42;0.30;;;0.00;;
37787;SDS011;23627;53.302;-6.362;2023-11-18T04:21:09;0.30;;;0.10;;
37787;SDS011;23627;53.302;-6.362;2023-11-18T04:23:44;0.10;;;0.10;;
37787;SDS011;23627;53.302;-6.362;2023-11-18T04:26:11;0.73;;;0.10;;
37787;SDS011;23627;53.302;-6.362;2023-11-18T04:28:37;0.28;;;0.08;;
37787;SDS011;23627;53.302;-6.362;2023-11-18T04:31:04;0.95;;;0.35;;
37787;SDS011;23627;53.302;-6.362;2023-11-18T04:33:32;0.30;;;0.10;;
37787;SDS011;23627;53.302;-6.362;2023-11-18T04:35:58;0.28;;;0.10;;
37787;SDS011;23627;53.302;-6.362;2023-11-18T04:38:25;0.55;;;0.10;;
37787;SDS011;23627;53.302;-6.362;2023-11-18T04:40:54;0.28;;;0.10;;
37787;SDS011;23627;53.302;-6.362;2023-11-18T04:43:20;0.17;;;0.00;;
37787;SDS011;23627;53.302;-6.362;2023-11-18T04:45:49;0.63;;;0.13;;
37787;SDS011;23627;53.302;-6.362;2023-11-18T04:48:15;0.20;;;0.10;;
37787;SDS011;23627;53.302;-6.362;2023-11-18T04:50:41;0.70;;;0.10;;
37787;SDS011;23627;53.302;-6.362;2023-11-18T04:53:08;0.40;;;0.10;;
37787;SDS011;23627;53.302;-6.362;2023-11-18T04:55:35;0.20;;;0.10;;
37787;SDS011;23627;53.302;-6.362;2023-11-18T04:58:01;0.15;;;0.10;;
37787;SDS011;23627;53.302;-6.362;2023-11-18T05:00:27;0.17;;;0.10;;
37787;SDS011;23627;53.302;-6.362;2023-11-18T05:02:53;0.20;;;0.10;;
37787;SDS011;23627;53.302;-6.362;2023-11-18T05:05:19;0.57;;;0.13;;
37787;SDS011;23627;53.302;-6.362;2023-11-18T05:07:47;0.52;;;0.20;;
37787;SDS011;23627;53.302;-6.362;2023-11-18T05:10:12;0.57;;;0.20;;
37787;SDS011;23627;53.302;-6.362;2023-11-18T05:12:38;0.32;;;0.15;;
37787;SDS011;23627;53.302;-6.362;2023-11-18T05:15:05;0.50;;;0.10;;
37787;SDS011;23627;53.302;-6.362;2023-11-18T05:17:36;0.30;;;0.10;;
37787;SDS011;23627;53.302;-6.362;2023-11-18T05:20:05;0.30;;;0.10;;
37787;SDS011;23627;53.302;-6.362;2023-11-18T05:22:36;0.40;;;0.10;;
37787;SDS011;23627;53.302;-6.362;2023-11-18T05:25:02;0.30;;;0.10;;
37787;SDS011;23627;53.302;-6.362;2023-11-18T05:27:30;0.73;;;0.10;;
37787;SDS011;23627;53.302;-6.362;2023-11-18T05:29:56;0.75;;;0.10;;
37787;SDS011;23627;53.302;-6.362;2023-11-18T05:32:26;0.40;;;0.10;;
37787;SDS011;23627;53.302;-6.362;2023-11-18T05:34:55;0.90;;;0.20;;
37787;SDS011;23627;53.302;-6.362;2023-11-18T05:37:22;0.60;;;0.20;;
37787;SDS011;23627;53.302;-6.362;2023-11-18T05:39:49;0.73;;;0.20;;
37787;SDS011;23627;53.302;-6.362;2023-11-18T05:42:23;0.50;;;0.10;;
37787;SDS011;23627;53.302;-6.362;2023-11-18T05:44:50;0.50;;;0.30;;
37787;SDS011;23627;53.302;-6.362;2023-11-18T05:47:23;0.65;;;0.30;;
37787;SDS011;23627;53.302;-6.362;2023-11-18T05:49:48;1.48;;;0.30;;
37787;SDS011;23627;53.302;-6.362;2023-11-18T05:52:14;0.85;;;0.25;;
37787;SDS011;23627;53.302;-6.362;2023-11-18T05:54:40;0.73;;;0.20;;
37787;SDS011;23627;53.302;-6.362;2023-11-18T05:57:05;1.40;;;0.20;;
37787;SDS011;23627;53.302;-6.362;2023-11-18T05:59:31;2.92;;;0.77;;
37787;SDS011;23627;53.302;-6.362;2023-11-18T06:01:58;2.28;;;0.57;;
37787;SDS011;23627;53.302;-6.362;2023-11-18T06:04:23;2.45;;;0.50;;
37787;SDS011;23627;53.302;-6.362;2023-11-18T06:06:50;1.42;;;0.28;;
37787;SDS011;23627;53.302;-6.362;2023-11-18T06:09:17;1.85;;;0.47;;
37787;SDS011;23627;53.302;-6.362;2023-11-18T06:11:53;3.78;;;0.45;;
37787;SDS011;23627;53.302;-6.362;2023-11-18T06:14:20;2.20;;;0.50;;
37787;SDS011;23627;53.302;-6.362;2023-11-18T06:16:49;6.03;;;0.60;;
37787;SDS011;23627;53.302;-6.362;2023-11-18T06:19:15;2.10;;;0.50;;
37787;SDS011;23627;53.302;-6.362;2023-11-18T06:21:41;4.07;;;0.52;;
37787;SDS011;23627;53.302;-6.362;2023-11-18T06:24:07;5.32;;;0.80;;
37787;SDS011;23627;53.302;-6.362;2023-11-18T06:26:36;3.75;;;0.88;;
37787;SDS011;23627;53.302;-6.362;2023-11-18T06:29:02;4.45;;;0.88;;
37787;SDS011;23627;53.302;-6.362;2023-11-18T06:31:29;6.43;;;0.93;;
37787;SDS011;23627;53.302;-6.362;2023-11-18T06:33:55;5.40;;;1.10;;
37787;SDS011;23627;53.302;-6.362;2023-11-18T06:36:21;6.00;;;0.82;;
37787;SDS011;23627;53.302;-6.362;2023-11-18T06:38:48;7.90;;;1.17;;
37787;SDS011;23627;53.302;-6.362;2023-11-18T06:41:15;6.15;;;1.10;;
37787;SDS011;23627;53.302;-6.362;2023-11-18T06:43:48;7.05;;;1.10;;
37787;SDS011;23627;53.302;-6.362;2023-11-18T06:46:20;6.80;;;1.50;;
37787;SDS011;23627;53.302;-6.362;2023-11-18T06:48:52;4.70;;;1.02;;
37787;SDS011;23627;53.302;-6.362;2023-11-18T06:51:23;6.68;;;1.10;;
37787;SDS011;23627;53.302;-6.362;2023-11-18T06:53:53;6.70;;;1.30;;
37787;SDS011;23627;53.302;-6.362;2023-11-18T06:56:23;7.60;;;1.27;;
37787;SDS011;23627;53.302;-6.362;2023-11-18T06:58:49;7.80;;;1.60;;
37787;SDS011;23627;53.302;-6.362;2023-11-18T07:01:15;6.70;;;1.23;;
37787;SDS011;23627;53.302;-6.362;2023-11-18T07:03:41;5.30;;;1.05;;
37787;SDS011;23627;53.302;-6.362;2023-11-18T07:06:08;8.27;;;1.33;;
37787;SDS011;23627;53.302;-6.362;2023-11-18T07:08:37;6.22;;;1.00;;
37787;SDS011;23627;53.302;-6.362;2023-11-18T07:11:04;5.40;;;1.27;;
37787;SDS011;23627;53.302;-6.362;2023-11-18T07:13:31;6.03;;;1.30;;
37787;SDS011;23627;53.302;-6.362;2023-11-18T07:15:59;8.20;;;1.20;;
37787;SDS011;23627;53.302;-6.362;2023-11-18T07:18:28;5.40;;;1.20;;
37787;SDS011;23627;53.302;-6.362;2023-11-18T07:20:55;6.70;;;1.58;;
37787;SDS011;23627;53.302;-6.362;2023-11-18T07:23:22;8.15;;;1.40;;
37787;SDS011;23627;53.302;-6.362;2023-11-18T07:25:48;6.85;;;1.27;;
37787;SDS011;23627;53.302;-6.362;2023-11-18T07:28:14;7.70;;;1.38;;
37787;SDS011;23627;53.302;-6.362;2023-11-18T07:30:45;7.70;;;1.55;;
37787;SDS011;23627;53.302;-6.362;2023-11-18T07:33:13;8.43;;;1.38;;
37787;SDS011;23627;53.302;-6.362;2023-11-18T07:35:39;7.15;;;1.40;;
37787;SDS011;23627;53.302;-6.362;2023-11-18T07:38:05;8.45;;;1.60;;
37787;SDS011;23627;53.302;-6.362;2023-11-18T07:40:32;6.45;;;1.30;;
37787;SDS011;23627;53.302;-6.362;2023-11-18T07:42:58;9.57;;;1.73;;
37787;SDS011;23627;53.302;-6.362;2023-11-18T07:45:27;11.00;;;1.95;;
37787;SDS011;23627;53.302;-6.362;2023-11-18T07:47:54;6.82;;;1.30;;
37787;SDS011;23627;53.302;-6.362;2023-11-18T07:50:20;6.25;;;1.52;;
37787;SDS011;23627;53.302;-6.362;2023-11-18T07:52:46;7.93;;;1.27;;
37787;SDS011;23627;53.302;-6.362;2023-11-18T07:55:16;7.55;;;1.83;;
37787;SDS011;23627;53.302;-6.362;2023-11-18T07:57:41;7.88;;;1.50;;
37787;SDS011;23627;53.302;-6.362;2023-11-18T08:00:08;8.00;;;1.48;;
37787;SDS011;23627;53.302;-6.362;2023-11-18T08:02:35;7.63;;;1.35;;
37787;SDS011;23627;53.302;-6.362;2023-11-18T08:05:04;7.70;;;1.38;;
37787;SDS011;23627;53.302;-6.362;2023-11-18T08:07:35;6.53;;;1.63;;
37787;SDS011;23627;53.302;-6.362;2023-11-18T08:10:04;9.82;;;1.70;;
37787;SDS011;23627;53.302;-6.362;2023-11-18T08:12:31;7.72;;;1.45;;
37787;SDS011;23627;53.302;-6.362;2023-11-18T08:14:57;9.40;;;1.50;;
37787;SDS011;23627;53.302;-6.362;2023-11-18T08:17:25;9.55;;;1.70;;
37787;SDS011;23627;53.302;-6.362;2023-11-18T08:19:51;8.50;;;1.90;;
37787;SDS011;23627;53.302;-6.362;2023-11-18T08:22:18;6.53;;;1.50;;
37787;SDS011;23627;53.302;-6.362;2023-11-18T08:24:44;10.90;;;2.13;;
37787;SDS011;23627;53.302;-6.362;2023-11-18T08:27:11;9.57;;;1.73;;
37787;SDS011;23627;53.302;-6.362;2023-11-18T08:29:37;10.93;;;2.47;;
37787;SDS011;23627;53.302;-6.362;2023-11-18T08:32:04;10.40;;;1.90;;
37787;SDS011;23627;53.302;-6.362;2023-11-18T08:34:31;7.50;;;1.70;;
37787;SDS011;23627;53.302;-6.362;2023-11-18T08:37:00;7.82;;;1.58;;
37787;SDS011;23627;53.302;-6.362;2023-11-18T08:39:28;10.15;;;1.70;;
37787;SDS011;23627;53.302;-6.362;2023-11-18T08:41:54;8.18;;;1.35;;
37787;SDS011;23627;53.302;-6.362;2023-11-18T08:44:20;8.77;;;1.70;;
37787;SDS011;23627;53.302;-6.362;2023-11-18T08:46:45;7.45;;;1.60;;
37787;SDS011;23627;53.302;-6.362;2023-11-18T08:49:11;10.15;;;1.77;;
37787;SDS011;23627;53.302;-6.362;2023-11-18T08:51:37;10.95;;;1.67;;
37787;SDS011;23627;53.302;-6.362;2023-11-18T08:54:04;10.30;;;1.70;;
37787;SDS011;23627;53.302;-6.362;2023-11-18T08:56:47;8.50;;;1.50;;
37787;SDS011;23627;53.302;-6.362;2023-11-18T08:59:16;10.43;;;2.35;;
37787;SDS011;23627;53.302;-6.362;2023-11-18T09:01:53;9.40;;;1.60;;
37787;SDS011;23627;53.302;-6.362;2023-11-18T09:04:24;7.72;;;1.20;;
37787;SDS011;23627;53.302;-6.362;2023-11-18T09:06:51;10.27;;;2.08;;
37787;SDS011;23627;53.302;-6.362;2023-11-18T09:09:22;7.75;;;1.60;;
37787;SDS011;23627;53.302;-6.362;2023-11-18T09:14:21;8.27;;;1.42;;
37787;SDS011;23627;53.302;-6.362;2023-11-18T09:16:50;7.78;;;1.45;;
37787;SDS011;23627;53.302;-6.362;2023-11-18T09:19:16;9.77;;;1.38;;
37787;SDS011;23627;53.302;-6.362;2023-11-18T09:21:42;10.07;;;1.60;;
37787;SDS011;23627;53.302;-6.362;2023-11-18T09:24:09;7.18;;;1.50;;
37787;SDS011;23627;53.302;-6.362;2023-11-18T09:26:37;8.73;;;1.73;;
37787;SDS011;23627;53.302;-6.362;2023-11-18T09:29:03;9.77;;;1.88;;
37787;SDS011;23627;53.302;-6.362;2023-11-18T09:31:29;7.50;;;1.70;;
37787;SDS011;23627;53.302;-6.362;2023-11-18T09:33:56;7.65;;;1.60;;
37787;SDS011;23627;53.302;-6.362;2023-11-18T09:36:22;6.50;;;1.42;;
37787;SDS011;23627;53.302;-6.362;2023-11-18T09:38:48;6.00;;;1.35;;
37787;SDS011;23627;53.302;-6.362;2023-11-18T09:41:17;7.82;;;1.42;;
37787;SDS011;23627;53.302;-6.362;2023-11-18T09:43:43;8.02;;;1.90;;
37787;SDS011;23627;53.302;-6.362;2023-11-18T09:46:14;9.02;;;1.50;;
37787;SDS011;23627;53.302;-6.362;2023-11-18T09:51:22;8.02;;;1.63;;
37787;SDS011;23627;53.302;-6.362;2023-11-18T09:53:52;8.63;;;1.83;;
37787;SDS011;23627;53.302;-6.362;2023-11-18T09:56:21;7.68;;;1.52;;
37787;SDS011;23627;53.302;-6.362;2023-11-18T10:01:44;6.93;;;1.60;;
37787;SDS011;23627;53.302;-6.362;2023-11-18T10:04:19;8.25;;;1.60;;
37787;SDS011;23627;53.302;-6.362;2023-11-18T10:06:48;6.80;;;1.42;;
37787;SDS011;23627;53.302;-6.362;2023-11-18T10:09:18;11.57;;;2.20;;
37787;SDS011;23627;53.302;-6.362;2023-11-18T10:11:53;8.82;;;1.52;;
37787;SDS011;23627;53.302;-6.362;2023-11-18T10:14:25;5.95;;;1.50;;
37787;SDS011;23627;53.302;-6.362;2023-11-18T10:16:52;7.57;;;1.50;;
37787;SDS011;23627;53.302;-6.362;2023-11-18T10:19:19;8.18;;;1.60;;
37787;SDS011;23627;53.302;-6.362;2023-11-18T10:21:45;8.48;;;1.73;;
37787;SDS011;23627;53.302;-6.362;2023-11-18T10:24:14;7.78;;;1.75;;
37787;SDS011;23627;53.302;-6.362;2023-11-18T10:26:44;6.68;;;1.50;;
37787;SDS011;23627;53.302;-6.362;2023-11-18T10:29:25;10.35;;;1.80;;
37787;SDS011;23627;53.302;-6.362;2023-11-18T10:32:05;10.25;;;1.90;;
37787;SDS011;23627;53.302;-6.362;2023-11-18T10:34:41;7.90;;;1.92;;
37787;SDS011;23627;53.302;-6.362;2023-11-18T10:37:08;8.60;;;1.70;;
37787;SDS011;23627;53.302;-6.362;2023-11-18T10:39:36;9.75;;;1.90;;
37787;SDS011;23627;53.302;-6.362;2023-11-18T10:42:02;7.30;;;1.88;;
37787;SDS011;23627;53.302;-6.362;2023-11-18T10:44:28;8.70;;;1.85;;
37787;SDS011;23627;53.302;-6.362;2023-11-18T10:46:54;9.98;;;1.83;;
37787;SDS011;23627;53.302;-6.362;2023-11-18T10:49:24;8.20;;;1.40;;
37787;SDS011;23627;53.302;-6.362;2023-11-18T10:51:52;11.25;;;2.28;;
37787;SDS011;23627;53.302;-6.362;2023-11-18T10:54:18;10.02;;;2.03;;
37787;SDS011;23627;53.302;-6.362;2023-11-18T10:56:50;9.90;;;1.55;;
37787;SDS011;23627;53.302;-6.362;2023-11-18T10:59:21;9.63;;;1.77;;
37787;SDS011;23627;53.302;-6.362;2023-11-18T11:01:51;8.70;;;1.65;;
37787;SDS011;23627;53.302;-6.362;2023-11-18T11:04:17;7.63;;;1.65;;
37787;SDS011;23627;53.302;-6.362;2023-11-18T11:06:46;9.52;;;1.75;;
37787;SDS011;23627;53.302;-6.362;2023-11-18T11:11:51;7.20;;;1.48;;
37787;SDS011;23627;53.302;-6.362;2023-11-18T11:14:33;9.77;;;1.95;;
37787;SDS011;23627;53.302;-6.362;2023-11-18T11:17:07;7.25;;;1.52;;
37787;SDS011;23627;53.302;-6.362;2023-11-18T11:19:41;8.10;;;1.48;;
37787;SDS011;23627;53.302;-6.362;2023-11-18T11:22:14;4.05;;;1.23;;
37787;SDS011;23627;53.302;-6.362;2023-11-18T11:30:29;5.75;;;1.40;;
37787;SDS011;23627;53.302;-6.362;2023-11-18T11:35:34;6.03;;;1.40;;
37787;SDS011;23627;53.302;-6.362;2023-11-18T11:38:05;6.85;;;1.30;;
37787;SDS011;23627;53.302;-6.362;2023-11-18T11:40:37;6.82;;;1.50;;
37787;SDS011;23627;53.302;-6.362;2023-11-18T11:43:05;7.80;;;1.88;;
37787;SDS011;23627;53.302;-6.362;2023-11-18T11:45:35;7.40;;;1.65;;
37787;SDS011;23627;53.302;-6.362;2023-11-18T11:48:04;9.27;;;1.50;;
37787;SDS011;23627;53.302;-6.362;2023-11-18T11:50:48;6.53;;;1.40;;
37787;SDS011;23627;53.302;-6.362;2023-11-18T11:53:30;5.97;;;1.30;;
37787;SDS011;23627;53.302;-6.362;2023-11-18T11:56:04;7.05;;;1.30;;
37787;SDS011;23627;53.302;-6.362;2023-11-18T11:58:33;6.47;;;1.55;;
37787;SDS011;23627;53.302;-6.362;2023-11-18T12:01:15;6.03;;;1.65;;
37787;SDS011;23627;53.302;-6.362;2023-11-18T12:03:49;8.13;;;1.40;;
37787;SDS011;23627;53.302;-6.362;2023-11-18T12:06:22;6.10;;;1.27;;
37787;SDS011;23627;53.302;-6.362;2023-11-18T12:08:52;5.53;;;1.58;;
37787;SDS011;23627;53.302;-6.362;2023-11-18T12:11:19;5.97;;;1.40;;
37787;SDS011;23627;53.302;-6.362;2023-11-18T12:14:00;6.70;;;1.30;;
37787;SDS011;23627;53.302;-6.362;2023-11-18T12:19:29;3.83;;;1.10;;
37787;SDS011;23627;53.302;-6.362;2023-11-18T12:22:09;5.18;;;1.20;;
37787;SDS011;23627;53.302;-6.362;2023-11-18T12:24:42;5.93;;;1.25;;
37787;SDS011;23627;53.302;-6.362;2023-11-18T12:27:50;5.50;;;1.40;;
37787;SDS011;23627;53.302;-6.362;2023-11-18T12:35:37;4.30;;;1.10;;
37787;SDS011;23627;53.302;-6.362;2023-11-18T12:41:36;7.72;;;1.63;;
37787;SDS011;23627;53.302;-6.362;2023-11-18T12:47:02;6.90;;;1.80;;
37787;SDS011;23627;53.302;-6.362;2023-11-18T12:49:46;8.27;;;1.30;;
37787;SDS011;23627;53.302;-6.362;2023-11-18T12:52:19;5.45;;;1.40;;
37787;SDS011;23627;53.302;-6.362;2023-11-18T12:54:46;5.25;;;1.17;;
37787;SDS011;23627;53.302;-6.362;2023-11-18T12:57:37;4.78;;;1.10;;
37787;SDS011;23627;53.302;-6.362;2023-11-18T13:00:04;6.93;;;1.75;;
37787;SDS011;23627;53.302;-6.362;2023-11-18T13:02:36;6.93;;;1.67;;
37787;SDS011;23627;53.302;-6.362;2023-11-18T13:05:07;5.72;;;1.65;;
37787;SDS011;23627;53.302;-6.362;2023-11-18T13:07:35;5.75;;;1.40;;
37787;SDS011;23627;53.302;-6.362;2023-11-18T13:10:02;8.63;;;1.60;;
37787;SDS011;23627;53.302;-6.362;2023-11-18T13:12:29;6.68;;;1.48;;
37787;SDS011;23627;53.302;-6.362;2023-11-18T13:14:55;9.50;;;1.83;;
37787;SDS011;23627;53.302;-6.362;2023-11-18T13:17:22;8.43;;;1.63;;
37787;SDS011;23627;53.302;-6.362;2023-11-18T13:19:47;6.25;;;1.80;;
37787;SDS011;23627;53.302;-6.362;2023-11-18T13:22:16;7.22;;;1.80;;
37787;SDS011;23627;53.302;-6.362;2023-11-18T13:24:45;6.80;;;1.83;;
37787;SDS011;23627;53.302;-6.362;2023-11-18T13:27:15;7.90;;;1.65;;
37787;SDS011;23627;53.302;-6.362;2023-11-18T13:29:45;7.95;;;1.63;;
37787;SDS011;23627;53.302;-6.362;2023-11-18T13:32:17;7.57;;;1.83;;
37787;SDS011;23627;53.302;-6.362;2023-11-18T13:34:48;8.05;;;1.88;;
37787;SDS011;23627;53.302;-6.362;2023-11-18T13:37:14;9.32;;;1.85;;
37787;SDS011;23627;53.302;-6.362;2023-11-18T13:39:42;9.80;;;1.80;;
37787;SDS011;23627;53.302;-6.362;2023-11-18T13:42:45;8.30;;;2.03;;
37787;SDS011;23627;53.302;-6.362;2023-11-18T13:45:14;8.30;;;1.88;;
37787;SDS011;23627;53.302;-6.362;2023-11-18T13:47:51;9.77;;;2.40;;
37787;SDS011;23627;53.302;-6.362;2023-11-18T13:50:17;11.23;;;2.50;;
37787;SDS011;23627;53.302;-6.362;2023-11-18T13:52:44;8.65;;;2.10;;
37787;SDS011;23627;53.302;-6.362;2023-11-18T13:55:11;9.65;;;2.47;;
37787;SDS011;23627;53.302;-6.362;2023-11-18T13:57:45;10.07;;;2.55;;
37787;SDS011;23627;53.302;-6.362;2023-11-18T14:00:12;8.75;;;2.15;;
37787;SDS011;23627;53.302;-6.362;2023-11-18T14:02:41;12.55;;;2.35;;
37787;SDS011;23627;53.302;-6.362;2023-11-18T14:05:16;10.98;;;3.13;;
37787;SDS011;23627;53.302;-6.362;2023-11-18T14:07:47;10.73;;;2.55;;
37787;SDS011;23627;53.302;-6.362;2023-11-18T14:10:15;9.02;;;2.30;;
37787;SDS011;23627;53.302;-6.362;2023-11-18T14:13:00;18.75;;;3.00;;
37787;SDS011;23627;53.302;-6.362;2023-11-18T14:15:31;18.55;;;3.33;;
37787;SDS011;23627;53.302;-6.362;2023-11-18T14:18:00;13.57;;;2.60;;
37787;SDS011;23627;53.302;-6.362;2023-11-18T14:20:27;14.80;;;2.80;;
37787;SDS011;23627;53.302;-6.362;2023-11-18T14:22:53;11.85;;;2.83;;
37787;SDS011;23627;53.302;-6.362;2023-11-18T14:25:19;14.60;;;3.08;;
37787;SDS011;23627;53.302;-6.362;2023-11-18T14:27:48;17.13;;;3.35;;
37787;SDS011;23627;53.302;-6.362;2023-11-18T14:30:14;12.45;;;2.75;;
37787;SDS011;23627;53.302;-6.362;2023-11-18T14:32:41;11.75;;;2.83;;
37787;SDS011;23627;53.302;-6.362;2023-11-18T14:35:07;9.40;;;1.95;;
37787;SDS011;23627;53.302;-6.362;2023-11-18T14:37:38;12.25;;;2.65;;
37787;SDS011;23627;53.302;-6.362;2023-11-18T14:40:09;13.13;;;2.20;;
37787;SDS011;23627;53.302;-6.362;2023-11-18T14:42:38;12.70;;;2.45;;
37787;SDS011;23627;53.302;-6.362;2023-11-18T14:45:11;8.93;;;1.98;;
37787;SDS011;23627;53.302;-6.362;2023-11-18T14:47:41;13.48;;;2.50;;
37787;SDS011;23627;53.302;-6.362;2023-11-18T14:50:12;12.70;;;2.10;;
37787;SDS011;23627;53.302;-6.362;2023-11-18T14:52:45;9.82;;;2.00;;
37787;SDS011;23627;53.302;-6.362;2023-11-18T14:55:11;13.55;;;2.60;;
37787;SDS011;23627;53.302;-6.362;2023-11-18T14:57:41;10.60;;;1.92;;
37787;SDS011;23627;53.302;-6.362;2023-11-18T15:00:09;11.70;;;2.20;;
37787;SDS011;23627;53.302;-6.362;2023-11-18T15:02:50;11.48;;;2.85;;
37787;SDS011;23627;53.302;-6.362;2023-11-18T15:07:50;15.55;;;2.75;;
37787;SDS011;23627;53.302;-6.362;2023-11-18T15:10:34;20.02;;;3.20;;
37787;SDS011;23627;53.302;-6.362;2023-11-18T15:13:08;14.10;;;2.58;;
37787;SDS011;23627;53.302;-6.362;2023-11-18T15:15:46;16.52;;;2.47;;
37787;SDS011;23627;53.302;-6.362;2023-11-18T15:18:19;15.05;;;2.90;;
37787;SDS011;23627;53.302;-6.362;2023-11-18T15:20:46;15.83;;;2.67;;
37787;SDS011;23627;53.302;-6.362;2023-11-18T15:23:26;11.40;;;2.30;;